createdAt,value
2019-01-24T00:01:53.122Z,-4.25
2019-01-24T00:04:26.075Z,-4.26
2019-01-24T00:06:59.085Z,-4.24
2019-01-24T00:09:30.968Z,-4.18
2019-01-24T00:12:04.186Z,-4.24
2019-01-24T00:14:36.981Z,-4.20
2019-01-24T00:17:08.361Z,-4.31
2019-01-24T00:19:40.136Z,-4.29
2019-01-24T00:22:13.163Z,-4.30
2019-01-24T00:24:45.073Z,-4.26
2019-01-24T00:27:18.158Z,-4.31
2019-01-24T00:29:52.214Z,-4.30
2019-01-24T00:32:26.139Z,-4.30
2019-01-24T00:35:01.349Z,-4.33
2019-01-24T00:37:34.117Z,-4.30
2019-01-24T00:40:10.571Z,-4.27
2019-01-24T00:42:43.181Z,-4.16
2019-01-24T00:45:15.926Z,-4.10
2019-01-24T00:47:49.163Z,-4.18
2019-01-24T00:50:21.140Z,-4.19
2019-01-24T00:52:55.259Z,-4.17
2019-01-24T00:55:28.212Z,-4.22
2019-01-24T00:58:00.196Z,-4.27
2019-01-24T01:00:35.066Z,-4.25
2019-01-24T01:03:08.005Z,-4.15
2019-01-24T01:05:42.874Z,-4.16
2019-01-24T01:08:15.710Z,-4.30
2019-01-24T01:10:49.385Z,-4.26
2019-01-24T01:13:22.198Z,-4.27
2019-01-24T01:15:56.357Z,-4.30
2019-01-24T01:18:31.110Z,-4.31
2019-01-24T01:21:08.201Z,-4.26
2019-01-24T01:23:43.035Z,-4.28
2019-01-24T01:26:14.281Z,-4.23
2019-01-24T01:28:46.405Z,-4.11
2019-01-24T01:31:17.982Z,-4.07
2019-01-24T01:33:53.073Z,-4.08
2019-01-24T01:36:25.505Z,-4.11
2019-01-24T01:38:59.521Z,-4.12
2019-01-24T01:41:33.805Z,-4.08
2019-01-24T01:44:07.163Z,-4.06
2019-01-24T01:46:39.942Z,-4.06
2019-01-24T01:49:13.287Z,-4.11
2019-01-24T01:51:47.171Z,-4.02
2019-01-24T01:54:21.276Z,-4.02
2019-01-24T01:56:55.493Z,-4.01
2019-01-24T01:59:28.255Z,-4.01
2019-01-24T02:01:59.449Z,-4.11
2019-01-24T02:04:34.470Z,-4.01
2019-01-24T02:07:07.414Z,-4.01
2019-01-24T02:09:40.781Z,-3.97
2019-01-24T02:12:14.597Z,-3.99
2019-01-24T02:14:50.176Z,-4.11
2019-01-24T02:17:22.710Z,-4.12
2019-01-24T02:19:58.155Z,-3.95
2019-01-24T02:22:30.666Z,-3.93
2019-01-24T02:25:05.888Z,-3.91
2019-01-24T02:27:38.598Z,-3.97
2019-01-24T02:30:23.662Z,-3.93
2019-01-24T02:32:55.747Z,-3.96
2019-01-24T02:35:29.655Z,-4.01
2019-01-24T02:38:00.869Z,-4.06
2019-01-24T02:40:36.339Z,-4.11
2019-01-24T02:43:08.222Z,-3.95
2019-01-24T02:45:39.677Z,-4.02
2019-01-24T02:48:11.763Z,-4.07
2019-01-24T02:50:44.980Z,-3.95
2019-01-24T02:53:17.815Z,-3.96
2019-01-24T02:55:49.104Z,-3.97
2019-01-24T02:58:20.356Z,-4.00
2019-01-24T03:00:51.876Z,-4.06
2019-01-24T03:03:24.898Z,-4.08
2019-01-24T03:05:58.874Z,-4.06
2019-01-24T03:08:33.806Z,-4.00
2019-01-24T03:11:09.430Z,-3.98
2019-01-24T03:13:43.028Z,-3.98
2019-01-24T03:16:14.961Z,-4.04
2019-01-24T03:18:48.876Z,-3.91
2019-01-24T03:21:22.984Z,-3.84
2019-01-24T03:23:55.970Z,-3.76
2019-01-24T03:26:27.216Z,-3.90
2019-01-24T03:28:58.878Z,-4.04
2019-01-24T03:31:31.982Z,-3.88
2019-01-24T03:34:03.241Z,-3.89
2019-01-24T03:36:34.495Z,-3.95
2019-01-24T03:39:09.490Z,-3.72
2019-01-24T03:41:41.873Z,-3.73
2019-01-24T03:44:15.331Z,-3.92
2019-01-24T03:46:47.021Z,-3.78
2019-01-24T03:49:22.562Z,-3.98
2019-01-24T03:51:54.761Z,-4.00
2019-01-24T03:54:26.013Z,-3.89
2019-01-24T03:56:57.201Z,-3.86
2019-01-24T03:59:31.070Z,-3.94
2019-01-24T04:02:03.860Z,-3.95
2019-01-24T04:04:37.167Z,-3.77
2019-01-24T04:07:08.519Z,-3.88
2019-01-24T04:09:40.059Z,-3.99
2019-01-24T04:12:11.990Z,-3.99
2019-01-24T04:14:45.204Z,-4.09
2019-01-24T04:17:18.985Z,-3.96
2019-01-24T04:19:50.485Z,-3.70
2019-01-24T04:22:21.710Z,-3.73
2019-01-24T04:24:55.064Z,-3.90
2019-01-24T04:27:28.738Z,-3.83
2019-01-24T04:30:01.936Z,-3.80
2019-01-24T04:32:35.027Z,-3.78
2019-01-24T04:35:08.278Z,-3.73
2019-01-24T04:37:43.761Z,-3.79
2019-01-24T04:40:17.563Z,-3.86
2019-01-24T04:42:52.360Z,-3.89
2019-01-24T04:45:25.445Z,-3.95
2019-01-24T04:47:59.371Z,-3.83
2019-01-24T04:50:32.090Z,-3.78
2019-01-24T04:53:03.547Z,-3.85
2019-01-24T04:55:34.792Z,-3.92
2019-01-24T04:58:10.024Z,-3.84
2019-01-24T05:00:42.389Z,-3.75
2019-01-24T05:03:16.247Z,-3.71
2019-01-24T05:05:49.780Z,-3.80
2019-01-24T05:08:21.832Z,-3.71
2019-01-24T05:10:53.360Z,-3.72
2019-01-24T05:13:26.460Z,-3.74
2019-01-24T05:15:57.696Z,-3.63
2019-01-24T05:18:31.414Z,-3.56
2019-01-24T05:21:07.896Z,-3.64
2019-01-24T05:23:41.516Z,-3.59
2019-01-24T05:26:14.520Z,-3.60
2019-01-24T05:28:48.571Z,-3.63
2019-01-24T05:31:22.413Z,-3.57
2019-01-24T05:33:57.965Z,-3.54
2019-01-24T05:36:30.413Z,-3.57
2019-01-24T05:39:08.327Z,-3.69
2019-01-24T05:41:41.481Z,-3.59
2019-01-24T05:44:12.700Z,-3.58
2019-01-24T05:46:45.702Z,-3.58
2019-01-24T05:49:18.051Z,-3.67
2019-01-24T05:51:50.814Z,-3.64
2019-01-24T05:54:24.736Z,-3.60
2019-01-24T05:56:58.644Z,-3.52
2019-01-24T05:59:29.864Z,-3.57
2019-01-24T06:02:01.533Z,-3.58
2019-01-24T06:04:35.805Z,-3.59
2019-01-24T06:07:08.568Z,-3.51
2019-01-24T06:09:43.578Z,-3.56
2019-01-24T06:12:15.992Z,-3.97
2019-01-24T06:14:47.571Z,-4.05
2019-01-24T06:17:21.834Z,-4.03
2019-01-24T06:19:54.692Z,-4.06
2019-01-24T06:22:37.539Z,-4.12
2019-01-24T06:25:09.194Z,-4.24
2019-01-24T06:27:40.609Z,-4.07
2019-01-24T06:30:15.164Z,-4.15
2019-01-24T06:32:48.840Z,-4.04
2019-01-24T06:36:05.160Z,-3.99
2019-01-24T06:38:39.085Z,-3.87
2019-01-24T06:41:11.801Z,-3.84
2019-01-24T06:43:43.975Z,-3.90
2019-01-24T06:46:17.808Z,-3.82
2019-01-24T06:48:49.060Z,-3.90
2019-01-24T06:51:20.419Z,-3.83
2019-01-24T06:53:53.784Z,-3.72
2019-01-24T06:56:25.017Z,-3.74
2019-01-24T06:58:58.728Z,-3.77
2019-01-24T07:01:30.803Z,-3.80
2019-01-24T07:04:03.790Z,-3.67
2019-01-24T07:06:39.286Z,-3.63
2019-01-24T07:09:11.877Z,-3.56
2019-01-24T07:11:45.956Z,-3.57
2019-01-24T07:14:17.178Z,-3.49
2019-01-24T07:16:50.791Z,-3.47
2019-01-24T07:19:23.757Z,-3.48
2019-01-24T07:21:57.912Z,-3.46
2019-01-24T07:24:31.990Z,-3.40
2019-01-24T07:27:03.266Z,-3.45
2019-01-24T07:29:37.076Z,-3.43
2019-01-24T07:32:08.779Z,-3.35
2019-01-24T07:34:42.058Z,-3.32
2019-01-24T07:37:14.956Z,-3.31
2019-01-24T07:39:46.924Z,-3.38
2019-01-24T07:42:21.164Z,-3.33
2019-01-24T07:44:54.125Z,-3.28
2019-01-24T07:47:25.635Z,-3.25
2019-01-24T07:49:56.867Z,-3.26
2019-01-24T07:52:30.021Z,-3.31
2019-01-24T07:55:02.361Z,-3.41
2019-01-24T07:57:35.065Z,-3.50
2019-01-24T08:00:10.801Z,-3.44
2019-01-24T08:02:43.480Z,-3.47
2019-01-24T08:05:15.027Z,-3.29
2019-01-24T08:07:48.256Z,-3.44
2019-01-24T08:10:24.365Z,-3.50
2019-01-24T08:12:57.770Z,-3.28
2019-01-24T08:15:31.755Z,-3.20
2019-01-24T08:18:04.845Z,-3.24
2019-01-24T08:20:37.231Z,-3.27
2019-01-24T08:23:09.042Z,-3.29
2019-01-24T08:25:42.915Z,-3.16
2019-01-24T08:28:15.459Z,-3.12
2019-01-24T08:30:47.186Z,-3.20
2019-01-24T08:33:21.217Z,-3.24
2019-01-24T08:35:55.199Z,-3.25
2019-01-24T08:38:29.226Z,-3.22
2019-01-24T08:41:00.473Z,-3.13
2019-01-24T08:53:04.259Z,-3.09
2019-01-24T08:55:38.081Z,-3.21
2019-01-24T08:58:10.158Z,-3.36
2019-01-24T09:00:41.393Z,-3.38
2019-01-24T09:03:17.315Z,-3.48
2019-01-24T09:05:50.087Z,-3.46
2019-01-24T09:08:21.311Z,-3.42
2019-01-24T09:10:55.261Z,-3.33
2019-01-24T09:13:26.999Z,-3.37
2019-01-24T09:16:01.499Z,-3.50
2019-01-24T09:18:34.636Z,-3.58
2019-01-24T09:21:08.739Z,-3.55
2019-01-24T09:23:41.914Z,-3.26
2019-01-24T09:26:16.000Z,-3.19
2019-01-24T09:28:47.981Z,-3.26
2019-01-24T09:31:24.716Z,-3.17
2019-01-24T09:34:03.063Z,-3.07
2019-01-24T09:36:37.994Z,-3.26
2019-01-24T09:39:10.808Z,-3.13
2019-01-24T09:41:43.814Z,-3.03
2019-01-24T09:44:15.544Z,-2.93
2019-01-24T09:46:48.548Z,-2.80
2019-01-24T09:49:24.130Z,-2.97
2019-01-24T09:51:56.336Z,-2.90
2019-01-24T09:54:27.562Z,-3.15
2019-01-24T09:56:58.855Z,-3.09
2019-01-24T09:59:30.077Z,-3.01
2019-01-24T10:02:02.944Z,-2.73
2019-01-24T10:04:36.807Z,-2.94
2019-01-24T10:07:09.222Z,-3.05
2019-01-24T10:10:15.823Z,-3.01
2019-01-24T10:13:04.226Z,-2.95
2019-01-24T10:15:35.909Z,-2.84
2019-01-24T10:18:08.712Z,-2.90
2019-01-24T10:20:40.319Z,-2.87
2019-01-24T10:23:12.919Z,-3.22
2019-01-24T10:25:44.676Z,-3.04
2019-01-24T10:28:18.812Z,-2.95
2019-01-24T10:30:51.789Z,-3.05
2019-01-24T10:33:23.648Z,-3.26
2019-01-24T10:35:57.681Z,-3.19
2019-01-24T10:38:28.923Z,-2.98
2019-01-24T10:41:03.253Z,-3.01
2019-01-24T10:43:41.149Z,-2.99
2019-01-24T10:46:12.801Z,-2.97
2019-01-24T10:48:44.761Z,-2.97
2019-01-24T10:51:17.796Z,-2.83
2019-01-24T10:53:49.974Z,-2.68
2019-01-24T10:56:25.487Z,-2.79
2019-01-24T10:58:57.965Z,-2.82
2019-01-24T11:01:29.181Z,-2.72
2019-01-24T11:04:02.923Z,-2.80
2019-01-24T11:06:34.117Z,-2.76
2019-01-24T11:09:08.470Z,-2.72
2019-01-24T11:11:41.510Z,-2.80
2019-01-24T11:14:14.320Z,-2.79
2019-01-24T11:16:47.087Z,-2.73
2019-01-24T11:19:20.862Z,-2.58
2019-01-24T11:21:54.075Z,-2.38
2019-01-24T11:24:28.107Z,-2.57
2019-01-24T11:27:02.052Z,-2.54
2019-01-24T11:29:33.452Z,-2.84
2019-01-24T11:32:04.788Z,-2.68
2019-01-24T11:34:37.961Z,-2.74
2019-01-24T11:37:09.253Z,-2.57
2019-01-24T11:39:43.034Z,-2.41
2019-01-24T11:42:14.992Z,-2.48
2019-01-24T11:44:48.200Z,-2.39
2019-01-24T11:47:22.109Z,-2.53
2019-01-24T11:49:57.714Z,-2.49
2019-01-24T11:52:30.162Z,-2.58
2019-01-24T11:55:04.357Z,-2.56
2019-01-24T11:57:38.171Z,-2.33
2019-01-24T12:00:17.350Z,-2.53
2019-01-24T12:02:49.274Z,-2.30
2019-01-24T12:05:20.519Z,-2.28
2019-01-24T12:07:54.205Z,-2.36
2019-01-24T12:10:28.283Z,-2.23
2019-01-24T12:13:03.695Z,-2.26
2019-01-24T12:15:36.093Z,-2.43
2019-01-24T12:18:09.193Z,-2.62
2019-01-24T12:20:41.227Z,-2.43
2019-01-24T12:23:15.231Z,-2.48
2019-01-24T12:25:48.628Z,-2.34
2019-01-24T12:28:22.492Z,-2.48
2019-01-24T12:30:56.281Z,-2.74
2019-01-24T12:33:27.802Z,-2.74
2019-01-24T12:35:59.083Z,-2.62
2019-01-24T12:38:30.310Z,-2.60
2019-01-24T12:41:03.278Z,-2.50
2019-01-24T12:43:40.289Z,-2.56
2019-01-24T12:46:12.427Z,-2.56
2019-01-24T12:48:47.377Z,-2.43
2019-01-24T12:51:19.948Z,-2.53
2019-01-24T12:53:52.810Z,-2.58
2019-01-24T12:56:25.542Z,-2.64
2019-01-24T12:59:02.841Z,-2.59
2019-01-24T13:01:36.393Z,-2.52
2019-01-24T13:04:10.308Z,-2.44
2019-01-24T13:06:45.915Z,-2.53
2019-01-24T13:09:18.992Z,-2.66
2019-01-24T13:11:53.318Z,-2.44
2019-01-24T13:14:28.699Z,-2.44
2019-01-24T13:17:01.583Z,-2.46
2019-01-24T13:19:33.586Z,-2.33
2019-01-24T13:22:04.956Z,-2.39
2019-01-24T13:34:45.585Z,-2.33
2019-01-24T13:37:25.581Z,-2.23
2019-01-24T13:39:53.636Z,-2.15
2019-01-24T13:42:25.079Z,-2.21
2019-01-24T13:44:56.977Z,-2.43
2019-01-24T13:47:29.943Z,-2.27
2019-01-24T13:50:05.227Z,-2.38
2019-01-24T13:52:37.545Z,-2.17
2019-01-24T13:55:09.563Z,-2.08
2019-01-24T14:01:07.199Z,-2.12
2019-01-24T14:03:57.966Z,-2.36
2019-01-24T14:06:31.804Z,-2.16
2019-01-24T14:09:08.207Z,-2.36
2019-01-24T14:11:39.648Z,-2.33
2019-01-24T14:14:13.018Z,-2.29
2019-01-24T14:16:46.702Z,-2.33
2019-01-24T14:19:18.811Z,-2.17
2019-01-24T14:21:52.112Z,-2.05
2019-01-24T14:24:25.806Z,-2.44
2019-01-24T14:26:57.027Z,-2.56
2019-01-24T14:29:29.804Z,-2.54
2019-01-24T14:32:01.744Z,-2.42
2019-01-24T14:34:34.900Z,-2.37
2019-01-24T14:37:09.081Z,-2.43
2019-01-24T14:39:41.128Z,-2.54
2019-01-24T14:42:13.029Z,-2.37
2019-01-24T14:44:45.843Z,-2.53
2019-01-24T14:47:20.135Z,-2.55
2019-01-24T14:49:52.041Z,-2.33
2019-01-24T14:52:26.617Z,-2.52
2019-01-24T14:55:00.264Z,-2.45
2019-01-24T14:57:34.113Z,-2.37
2019-01-24T15:00:20.661Z,-2.28
2019-01-24T15:02:55.046Z,-2.11
2019-01-24T15:05:26.642Z,-2.29
2019-01-24T15:08:00.419Z,-2.27
2019-01-24T15:10:38.299Z,-2.37
2019-01-24T15:13:11.320Z,-2.33
2019-01-24T15:15:45.241Z,-2.44
2019-01-24T15:18:18.171Z,-2.37
2019-01-24T15:20:51.142Z,-2.36
2019-01-24T15:23:23.363Z,-2.45
2019-01-24T15:25:56.195Z,-2.44
2019-01-24T15:28:29.140Z,-2.36
2019-01-24T15:31:03.278Z,-2.39
2019-01-24T15:33:37.434Z,-2.49
2019-01-24T15:36:08.699Z,-2.45
2019-01-24T15:38:42.401Z,-2.50
2019-01-24T15:41:14.226Z,-2.43
2019-01-24T15:43:48.021Z,-2.26
2019-01-24T15:46:21.230Z,-2.43
2019-01-24T15:48:55.162Z,-2.32
2019-01-24T15:51:30.959Z,-2.33
2019-01-24T15:54:04.961Z,-2.43
2019-01-24T15:56:39.762Z,-2.48
2019-01-24T15:59:15.824Z,-2.43
2019-01-24T16:01:48.090Z,-2.28
2019-01-24T16:04:22.079Z,-2.37
2019-01-24T16:06:54.540Z,-2.48
2019-01-24T16:09:28.597Z,-2.55
2019-01-24T16:12:01.221Z,-2.58
2019-01-24T16:14:34.308Z,-2.61
2019-01-24T16:17:13.835Z,-2.52
2019-01-24T16:19:46.234Z,-2.35
2019-01-24T16:22:20.354Z,-2.34
2019-01-24T16:24:54.588Z,-2.38
2019-01-24T16:27:27.931Z,-2.43
2019-01-24T16:30:02.472Z,-2.46
2019-01-24T16:32:35.194Z,-2.38
2019-01-24T16:35:09.665Z,-2.41
2019-01-24T16:37:42.417Z,-2.44
2019-01-24T16:40:16.905Z,-2.48
2019-01-24T16:42:51.133Z,-2.63
2019-01-24T16:45:27.214Z,-2.59
2019-01-24T16:48:01.371Z,-2.57
2019-01-24T16:50:33.705Z,-2.55
2019-01-24T16:53:06.445Z,-2.51
2019-01-24T16:55:39.229Z,-2.61
2019-01-24T16:58:12.533Z,-2.42
2019-01-24T17:00:49.065Z,-2.56
2019-01-24T17:03:23.150Z,-2.55
2019-01-24T17:05:56.211Z,-2.53
2019-01-24T17:08:29.398Z,-2.60
2019-01-24T17:11:03.799Z,-2.58
2019-01-24T17:13:38.614Z,-2.51
2019-01-24T17:16:09.931Z,-2.38
2019-01-24T17:18:43.697Z,-2.45
2019-01-24T17:21:16.592Z,-2.30
2019-01-24T17:23:47.819Z,-2.48
2019-01-24T17:26:21.574Z,-2.48
2019-01-24T17:28:57.132Z,-2.49
2019-01-24T17:31:29.691Z,-2.50
2019-01-24T17:37:29.960Z,-2.54
2019-01-24T17:40:02.625Z,-2.53
2019-01-24T17:42:34.602Z,-2.52
2019-01-24T17:45:09.843Z,-2.46
2019-01-24T17:47:41.812Z,-2.49
2019-01-24T17:50:19.773Z,-2.42
2019-01-24T17:52:55.428Z,-2.37
2019-01-24T17:59:02.927Z,-2.35
2019-01-24T18:01:42.273Z,-2.36
2019-01-24T18:04:21.755Z,-2.39
2019-01-24T18:06:53.658Z,-2.37
2019-01-24T18:09:29.113Z,-2.34
2019-01-24T18:12:04.068Z,-2.39
2019-01-24T18:14:36.948Z,-2.36
2019-01-24T18:17:09.728Z,-2.44
2019-01-24T18:19:44.032Z,-2.39
2019-01-24T18:22:15.782Z,-2.29
2019-01-24T18:24:48.882Z,-2.25
2019-01-24T18:27:23.218Z,-2.44
2019-01-24T18:29:56.828Z,-2.51
2019-01-24T18:32:28.342Z,-2.34
2019-01-24T18:35:01.830Z,-2.49
2019-01-24T18:37:35.811Z,-2.55
2019-01-24T18:40:11.316Z,-2.36
2019-01-24T18:42:43.859Z,-2.50
2019-01-24T18:45:19.214Z,-2.50
2019-01-24T18:47:51.996Z,-2.49
2019-01-24T18:50:26.330Z,-2.71
2019-01-24T18:52:59.934Z,-2.73
2019-01-24T18:55:33.938Z,-2.64
2019-01-24T18:58:08.263Z,-2.67
2019-01-24T19:00:46.632Z,-2.71
2019-01-24T19:03:19.238Z,-2.77
2019-01-24T19:05:55.067Z,-2.82
2019-01-24T19:08:27.439Z,-2.84
2019-01-24T19:11:01.900Z,-2.57
2019-01-24T19:13:34.346Z,-2.68
2019-01-24T19:16:08.469Z,-2.69
2019-01-24T19:18:42.685Z,-2.81
2019-01-24T19:21:16.197Z,-2.90
2019-01-24T19:23:48.545Z,-2.90
2019-01-24T19:26:22.158Z,-2.72
2019-01-24T19:28:57.824Z,-2.58
2019-01-24T19:31:29.427Z,-2.81
2019-01-24T19:34:02.803Z,-2.90
2019-01-24T19:36:35.287Z,-2.75
2019-01-24T19:39:10.115Z,-2.91
2019-01-24T19:41:44.841Z,-2.92
2019-01-24T19:44:18.863Z,-2.95
2019-01-24T19:46:52.660Z,-3.11
2019-01-24T19:49:25.419Z,-3.02
2019-01-24T19:51:58.332Z,-2.94
2019-01-24T19:54:29.600Z,-2.96
2019-01-24T19:57:03.248Z,-2.96
2019-01-24T19:59:38.754Z,-3.02
2019-01-24T20:02:10.208Z,-3.01
2019-01-24T20:04:44.046Z,-3.01
2019-01-24T20:07:16.541Z,-3.11
2019-01-24T20:09:52.036Z,-3.08
2019-01-24T20:12:24.331Z,-2.99
2019-01-24T20:14:58.259Z,-3.05
2019-01-24T20:17:29.477Z,-2.89
2019-01-24T20:20:03.618Z,-2.79
2019-01-24T20:22:36.020Z,-2.96
2019-01-24T20:25:11.407Z,-2.82
2019-01-24T20:27:44.392Z,-2.87
2019-01-24T20:30:20.113Z,-2.91
2019-01-24T20:32:52.556Z,-2.77
2019-01-24T20:35:38.085Z,-2.76
2019-01-24T20:38:09.983Z,-2.87
2019-01-24T20:40:44.277Z,-2.91
2019-01-24T20:43:16.553Z,-2.89
2019-01-24T20:45:49.390Z,-2.68
2019-01-24T20:48:22.837Z,-2.71
2019-01-24T20:50:56.524Z,-2.88
2019-01-24T20:53:30.759Z,-2.83
2019-01-24T20:56:02.831Z,-2.88
2019-01-24T20:58:38.804Z,-2.86
2019-01-24T21:01:10.383Z,-2.96
2019-01-24T21:03:43.525Z,-2.77
2019-01-24T21:06:17.423Z,-2.78
2019-01-24T21:08:51.638Z,-2.89
2019-01-24T21:11:23.007Z,-2.76
2019-01-24T21:13:56.859Z,-2.80
2019-01-24T21:16:30.737Z,-2.83
2019-01-24T21:19:02.271Z,-2.66
2019-01-24T21:21:36.774Z,-2.83
2019-01-24T21:24:09.701Z,-2.85
2019-01-24T21:26:43.693Z,-2.74
2019-01-24T21:29:16.642Z,-2.84
2019-01-24T21:31:48.576Z,-2.68
2019-01-24T21:34:22.490Z,-2.78
2019-01-24T21:36:53.813Z,-2.80
2019-01-24T21:39:27.701Z,-2.90
2019-01-24T21:42:01.766Z,-2.82
2019-01-24T21:44:33.070Z,-2.73
2019-01-24T21:47:07.358Z,-2.82
2019-01-24T21:49:39.949Z,-2.64
2019-01-24T21:52:14.741Z,-2.85
2019-01-24T21:54:46.711Z,-2.90
2019-01-24T21:57:20.500Z,-2.82
2019-01-24T21:59:57.033Z,-2.79
2019-01-24T22:02:30.882Z,-2.85
2019-01-24T22:05:04.005Z,-2.73
2019-01-24T22:07:35.322Z,-2.73
2019-01-24T22:10:08.489Z,-2.83
2019-01-24T22:12:40.964Z,-2.67
2019-01-24T22:15:15.177Z,-2.61
2019-01-24T22:17:48.443Z,-2.73
2019-01-24T22:20:22.829Z,-2.66
2019-01-24T22:22:57.786Z,-2.86
2019-01-24T22:25:32.762Z,-2.90
2019-01-24T22:28:08.069Z,-2.86
2019-01-24T22:30:56.348Z,-2.89
2019-01-24T22:33:30.428Z,-2.58
2019-01-24T22:36:03.275Z,-2.60
2019-01-24T22:38:34.912Z,-2.65
2019-01-24T22:41:09.179Z,-2.85
2019-01-24T22:43:43.043Z,-3.01
2019-01-24T22:46:17.573Z,-2.93
2019-01-24T22:48:51.129Z,-2.93
2019-01-24T22:51:22.365Z,-2.91
2019-01-24T22:53:55.043Z,-2.81
2019-01-24T22:56:26.934Z,-2.80
2019-01-24T22:59:02.658Z,-2.78
2019-01-24T23:02:09.951Z,-2.77
2019-01-24T23:04:45.009Z,-2.78
2019-01-24T23:07:20.202Z,-2.82
2019-01-24T23:09:53.614Z,-2.59
2019-01-24T23:12:29.168Z,-2.71
2019-01-24T23:15:01.049Z,-2.86
2019-01-24T23:17:32.970Z,-2.73
2019-01-24T23:20:09.547Z,-2.75
2019-01-24T23:22:41.550Z,-2.75
2019-01-24T23:25:14.437Z,-2.83
2019-01-24T23:27:48.850Z,-2.81
2019-01-24T23:30:22.699Z,-2.82
2019-01-24T23:32:55.895Z,-2.76
2019-01-24T23:35:29.292Z,-2.78
2019-01-24T23:38:01.597Z,-2.59
2019-01-24T23:40:35.721Z,-2.53
2019-01-24T23:43:10.729Z,-2.49
2019-01-24T23:45:43.422Z,-2.67
2019-01-24T23:48:16.887Z,-2.68
2019-01-24T23:50:50.651Z,-2.73
2019-01-24T23:53:45.401Z,-2.58
2019-01-24T23:56:20.938Z,-2.66
2019-01-24T23:58:52.145Z,-2.66
